Rhonda Lamulle — WDC8441 — position and weather

sailwx.info

Track history (hours):
 
Tides and Currents Weather Stations Pressure Air Temp Water Temp Dewpoint Dewpoint Depression Visibility Wind Speed Wind Dir Waves Ship Positions

Rhonda Lamulle

Owner: Florida Marine Transporters, Inc., Mandeville, LA. More information available from US FCC via Universal Licensing System and Coast Guard Vessel Documentation Center.

Last reported at 2015-Aug-28 07:32 UTC. Time now 2015-Aug-29 00:21 UTC.
Position N 30°00' W 089°58'.

Length 13 m; draft 3 m.

Type: Towing. MMSI: 367087104.

Date/timePositionNaut miles runAvg speedWind from/ knotsBaromVisibWave heightAir tempDewpointWater temp
2015-Aug-28 07:32N 30°00' W 089°58'4 3.9
2015-Aug-28 06:30N 29°58' W 090°02'1 0.8
2015-Aug-28 05:31N 29°57' W 090°02'0 0.0
2015-Aug-28 04:33N 29°57' W 090°02'0 0.0
2015-Aug-28 03:34N 29°57' W 090°02'0 0.0
2015-Aug-28 02:33N 29°57' W 090°02'0 0.0
2015-Aug-28 01:29N 29°57' W 090°02'0 0.0
2015-Aug-28 00:32N 29°57' W 090°02'0 0.0
2015-Aug-27 23:33N 29°57' W 090°02'0 0.0
2015-Aug-27 22:31N 29°57' W 090°02'  
2015-Aug-24 11:11N 29°50' W 090°03'6 2.2
2015-Aug-24 08:26N 29°55' W 089°58'0 0.4
2015-Aug-24 07:29N 29°55' W 089°58'1 0.6
2015-Aug-24 06:21N 29°55' W 089°59'0 0.0
2015-Aug-24 05:30N 29°55' W 089°59'0 0.0
2015-Aug-24 04:27N 29°55' W 089°59'0 0.0
2015-Aug-24 03:33N 29°55' W 089°59'0 0.0
2015-Aug-24 02:33N 29°55' W 089°59'0 0.0
2015-Aug-24 01:33N 29°55' W 089°59'0 0.0
2015-Aug-24 00:32N 29°55' W 089°59'0 0.0
2015-Aug-23 23:32N 29°55' W 089°59'0 0.0
2015-Aug-23 22:33N 29°55' W 089°59'0 0.0
2015-Aug-23 21:32N 29°55' W 089°59'0 0.0
2015-Aug-23 20:33N 29°55' W 089°59'0 0.0
2015-Aug-23 19:26N 29°55' W 089°59'4 3.8
2015-Aug-23 18:30N 29°58' W 090°02'1 1.3
2015-Aug-23 17:33N 29°59' W 090°01'166 4.2
2015-Aug-22 02:33N 30°24' W 086°52'6 6.0
2015-Aug-22 01:33N 30°24' W 086°45'8 5.3
2015-Aug-22 00:04N 30°24' W 086°35'4 5.8
2015-Aug-21 23:22N 30°25' W 086°31'4 5.3
2015-Aug-21 22:33N 30°29' W 086°28'1 0.8
2015-Aug-21 21:33N 30°29' W 086°29'0 0.0
2015-Aug-21 20:33N 30°29' W 086°29'0 0.0
2015-Aug-21 19:33N 30°29' W 086°29'0 0.0
2015-Aug-21 18:33N 30°29' W 086°29'0 0.0
2015-Aug-21 17:33N 30°29' W 086°29'0 0.0
2015-Aug-21 16:33N 30°29' W 086°29'0 0.0
2015-Aug-21 15:33N 30°29' W 086°29'0 0.0
2015-Aug-21 14:33N 30°29' W 086°29'0 0.0
2015-Aug-21 13:33N 30°29' W 086°29'0 0.0
2015-Aug-21 12:33N 30°29' W 086°29'13 0.3
2015-Aug-19 11:18N 30°26' W 086°15'5 6.1
2015-Aug-19 10:33N 30°26' W 086°20'6 6.0
2015-Aug-19 09:33N 30°26' W 086°27'6 5.9
2015-Aug-19 08:33N 30°24' W 086°34'10 5.1
2015-Aug-19 06:32N 30°24' W 086°46'6 5.9
2015-Aug-19 05:34N 30°24' W 086°52'  
Track history (hours):
 
Tides and Currents Weather Stations Pressure Air Temp Water Temp Dewpoint Dewpoint Depression Visibility Wind Speed Wind Dir Waves Ship Positions

Rhonda Lamulle

Owner: Florida Marine Transporters, Inc., Mandeville, LA. More information available from US FCC via Universal Licensing System and Coast Guard Vessel Documentation Center.

Last reported at 2015-Aug-28 07:32 UTC. Time now 2015-Aug-29 00:21 UTC.
Position N 30°00' W 089°58'.

Length 13 m; draft 3 m.

Type: Towing. MMSI: 367087104.

Date/timePositionNaut miles runAvg speedWind from/ knotsBaromVisibWave heightAir tempDewpointWater temp
2015-Aug-28 07:32N 30°00' W 089°58'4 3.9
2015-Aug-28 06:30N 29°58' W 090°02'1 0.8
2015-Aug-28 05:31N 29°57' W 090°02'0 0.0
2015-Aug-28 04:33N 29°57' W 090°02'0 0.0
2015-Aug-28 03:34N 29°57' W 090°02'0 0.0
2015-Aug-28 02:33N 29°57' W 090°02'0 0.0
2015-Aug-28 01:29N 29°57' W 090°02'0 0.0
2015-Aug-28 00:32N 29°57' W 090°02'0 0.0
2015-Aug-27 23:33N 29°57' W 090°02'0 0.0
2015-Aug-27 22:31N 29°57' W 090°02'  
2015-Aug-24 11:11N 29°50' W 090°03'6 2.2
2015-Aug-24 08:26N 29°55' W 089°58'0 0.4
2015-Aug-24 07:29N 29°55' W 089°58'1 0.6
2015-Aug-24 06:21N 29°55' W 089°59'0 0.0
2015-Aug-24 05:30N 29°55' W 089°59'0 0.0
2015-Aug-24 04:27N 29°55' W 089°59'0 0.0
2015-Aug-24 03:33N 29°55' W 089°59'0 0.0
2015-Aug-24 02:33N 29°55' W 089°59'0 0.0
2015-Aug-24 01:33N 29°55' W 089°59'0 0.0
2015-Aug-24 00:32N 29°55' W 089°59'0 0.0
2015-Aug-23 23:32N 29°55' W 089°59'0 0.0
2015-Aug-23 22:33N 29°55' W 089°59'0 0.0
2015-Aug-23 21:32N 29°55' W 089°59'0 0.0
2015-Aug-23 20:33N 29°55' W 089°59'0 0.0
2015-Aug-23 19:26N 29°55' W 089°59'4 3.8
2015-Aug-23 18:30N 29°58' W 090°02'1 1.3
2015-Aug-23 17:33N 29°59' W 090°01'166 4.2
2015-Aug-22 02:33N 30°24' W 086°52'6 6.0
2015-Aug-22 01:33N 30°24' W 086°45'8 5.3
2015-Aug-22 00:04N 30°24' W 086°35'4 5.8
2015-Aug-21 23:22N 30°25' W 086°31'4 5.3
2015-Aug-21 22:33N 30°29' W 086°28'1 0.8
2015-Aug-21 21:33N 30°29' W 086°29'0 0.0
2015-Aug-21 20:33N 30°29' W 086°29'0 0.0
2015-Aug-21 19:33N 30°29' W 086°29'0 0.0
2015-Aug-21 18:33N 30°29' W 086°29'0 0.0
2015-Aug-21 17:33N 30°29' W 086°29'0 0.0
2015-Aug-21 16:33N 30°29' W 086°29'0 0.0
2015-Aug-21 15:33N 30°29' W 086°29'0 0.0
2015-Aug-21 14:33N 30°29' W 086°29'0 0.0
2015-Aug-21 13:33N 30°29' W 086°29'0 0.0
2015-Aug-21 12:33N 30°29' W 086°29'13 0.3
2015-Aug-19 11:18N 30°26' W 086°15'5 6.1
2015-Aug-19 10:33N 30°26' W 086°20'6 6.0
2015-Aug-19 09:33N 30°26' W 086°27'6 5.9
2015-Aug-19 08:33N 30°24' W 086°34'10 5.1
2015-Aug-19 06:32N 30°24' W 086°46'6 5.9
2015-Aug-19 05:34N 30°24' W 086°52'  

Dump ship's entire track history